Time;durP1;ratioP1;P1;durP2;ratioP2;P2;SDS_P1;SDS_P2;PMS_P1;PMS_P2;Temp;Humidity;BMP_temperature;BMP_pressure;BME280_temperature;BME280_humidity;BME280_pressure;Samples;Min_cycle;Max_cycle;Signal;HPM_P1;HPM_P2
2023/06/15 00:01:04;;;;;;;5.53;4.50;;;;;;;15.62;56.91;101684.84;5051037;28;20036;-75
2023/06/15 00:03:30;;;;;;;8.80;4.60;;;;;;;15.61;57.26;101689.47;5050914;28;20037;-75
2023/06/15 00:05:56;;;;;;;8.00;4.50;;;;;;;15.53;56.89;101695.09;5052536;28;20413;-75
2023/06/15 00:08:21;;;;;;;7.05;4.65;;;;;;;15.51;57.18;101702.63;5052903;28;20035;-75
2023/06/15 00:10:47;;;;;;;5.43;4.90;;;;;;;15.45;57.50;101698.03;5045226;28;20025;-75
2023/06/15 00:13:12;;;;;;;5.75;4.63;;;;;;;15.41;57.86;101702.19;5050950;28;20037;-75
2023/06/15 00:15:39;;;;;;;7.13;4.65;;;;;;;15.40;57.89;101693.22;5051976;28;20119;-75
2023/06/15 00:18:05;;;;;;;7.60;4.50;;;;;;;15.30;57.93;101699.06;5049747;28;20137;-75
2023/06/15 00:20:30;;;;;;;6.75;4.45;;;;;;;15.27;58.24;101698.63;5051433;28;20480;-75
2023/06/15 00:22:58;;;;;;;5.97;4.50;;;;;;;15.22;58.54;101699.25;5044262;28;20048;-75
2023/06/15 00:25:23;;;;;;;6.47;4.82;;;;;;;15.21;58.52;101694.06;5050376;28;20041;-75
2023/06/15 00:27:48;;;;;;;7.88;5.57;;;;;;;15.19;58.49;101698.84;5051490;28;20045;-75
2023/06/15 00:30:14;;;;;;;5.38;4.88;;;;;;;15.20;58.54;101693.19;5053978;28;20380;-75
2023/06/15 00:32:39;;;;;;;7.18;5.20;;;;;;;15.20;58.69;101695.91;5041820;28;20017;-75
2023/06/15 00:35:05;;;;;;;10.27;4.90;;;;;;;15.22;58.78;101701.97;5052366;28;20025;-75
2023/06/15 00:37:30;;;;;;;7.18;5.10;;;;;;;15.23;58.81;101698.22;5052081;28;20031;-75
2023/06/15 00:39:56;;;;;;;6.20;4.65;;;;;;;15.23;58.94;101702.81;5044365;28;20024;-75
2023/06/15 00:42:21;;;;;;;6.15;5.07;;;;;;;15.18;59.14;101706.13;5052001;28;20434;-75
2023/06/15 00:44:46;;;;;;;7.25;5.25;;;;;;;15.16;59.72;101703.63;5052978;28;20033;-75
2023/06/15 00:47:12;;;;;;;5.43;4.93;;;;;;;15.15;59.50;101699.25;5052951;28;20514;-75
2023/06/15 00:49:40;;;;;;;5.60;5.00;;;;;;;15.15;59.88;101701.16;5048486;28;20029;-74
2023/06/15 00:52:06;;;;;;;6.18;5.57;;;;;;;15.09;60.21;101702.78;5052450;28;20027;-74
2023/06/15 00:54:33;;;;;;;7.93;5.05;;;;;;;15.10;60.64;101700.94;5033678;28;20677;-74
2023/06/15 00:56:59;;;;;;;6.38;5.32;;;;;;;15.10;60.87;101698.22;5033688;28;20020;-74
2023/06/15 00:59:24;;;;;;;6.07;4.82;;;;;;;15.10;61.33;101698.22;5034597;28;20149;-74
2023/06/15 01:01:54;;;;;;;6.80;5.88;;;;;;;15.06;61.76;101705.09;5046647;28;20041;-74
2023/06/15 01:04:25;;;;;;;5.68;5.10;;;;;;;15.03;61.71;101702.78;5047608;28;20032;-74
2023/06/15 01:06:56;;;;;;;8.43;5.32;;;;;;;15.00;62.34;101698.59;5050875;28;20067;-74
2023/06/15 01:09:21;;;;;;;11.48;5.32;;;;;;;14.94;62.27;101697.56;5033454;28;20070;-74
2023/06/15 01:11:52;;;;;;;7.75;5.13;;;;;;;14.91;62.88;101706.09;5035409;28;20025;-74
2023/06/15 01:14:19;;;;;;;7.03;5.53;;;;;;;14.83;62.96;101704.41;5029106;28;20064;-74
2023/06/15 01:16:52;;;;;;;7.22;5.72;;;;;;;14.87;63.44;101709.44;5026196;28;20112;-75
2023/06/15 01:19:29;;;;;;;6.40;5.20;;;;;;;14.76;63.90;101713.56;5023048;28;20366;-74
2023/06/15 01:22:02;;;;;;;9.20;5.43;;;;;;;14.75;64.17;101706.47;5030997;28;20033;-74
2023/06/15 01:24:33;;;;;;;6.30;5.00;;;;;;;14.68;64.30;101706.47;5010924;28;20104;-74
2023/06/15 01:26:59;;;;;;;5.65;5.10;;;;;;;14.70;64.61;101710.63;5016787;28;20045;-74
2023/06/15 01:29:26;;;;;;;9.57;5.60;;;;;;;14.66;65.07;101703.91;5032778;28;20430;-74
2023/06/15 01:31:52;;;;;;;7.43;5.00;;;;;;;14.61;65.13;101706.41;5031862;28;20476;-74
2023/06/15 01:34:17;;;;;;;7.28;5.80;;;;;;;14.57;65.29;101705.13;5015033;28;20025;-74
2023/06/15 01:36:43;;;;;;;9.88;5.90;;;;;;;14.54;65.57;101710.94;5049614;28;20021;-75
2023/06/15 01:39:08;;;;;;;8.30;5.88;;;;;;;14.47;65.92;101708.22;5043162;28;20029;-74
2023/06/15 01:41:34;;;;;;;6.50;5.90;;;;;;;14.44;66.28;101705.09;5029564;28;20040;-75
2023/06/15 01:43:59;;;;;;;8.27;5.72;;;;;;;14.42;66.40;101707.16;5012997;28;20029;-75
2023/06/15 01:46:28;;;;;;;10.20;5.72;;;;;;;14.34;66.59;101703.56;5049265;28;20337;-75
2023/06/15 01:48:53;;;;;;;7.03;5.35;;;;;;;14.31;66.43;101711.28;5028638;28;20119;-74
2023/06/15 01:51:18;;;;;;;9.70;6.00;;;;;;;14.32;66.57;101711.06;5027623;28;20026;-74
2023/06/15 01:53:44;;;;;;;7.40;5.72;;;;;;;14.28;66.95;101704.41;5034031;28;20021;-74
2023/06/15 01:56:10;;;;;;;9.10;5.70;;;;;;;14.23;66.71;101706.84;5025317;28;20029;-74
2023/06/15 01:58:35;;;;;;;6.60;5.78;;;;;;;14.16;67.44;101708.69;5050070;28;20383;-74
2023/06/15 02:01:01;;;;;;;5.72;4.97;;;;;;;14.11;67.36;101701.16;5043072;28;20041;-75
2023/06/15 02:03:26;;;;;;;9.55;6.32;;;;;;;14.04;68.03;101700.28;5048781;28;20028;-75
2023/06/15 02:05:51;;;;;;;7.05;5.82;;;;;;;14.04;67.94;101695.72;5045647;28;20493;-74
2023/06/15 02:08:17;;;;;;;8.27;6.18;;;;;;;14.00;68.38;101710.69;5040688;28;20059;-74
2023/06/15 02:10:42;;;;;;;5.97;5.47;;;;;;;13.95;68.65;101707.72;5048015;28;20037;-73
2023/06/15 02:13:09;;;;;;;6.90;5.53;;;;;;;13.94;68.90;101704.19;5044314;28;20464;-73
2023/06/15 02:15:36;;;;;;;9.95;5.85;;;;;;;13.91;69.13;101709.19;5041471;28;20467;-73
2023/06/15 02:18:02;;;;;;;8.00;6.18;;;;;;;13.90;69.35;101705.63;5050317;28;20055;-74
2023/06/15 02:20:28;;;;;;;6.63;5.40;;;;;;;13.82;69.43;101703.09;5031380;28;20094;-76
2023/06/15 02:22:57;;;;;;;8.27;6.00;;;;;;;13.80;69.99;101705.97;5047003;28;20041;-76
2023/06/15 02:25:25;;;;;;;6.38;5.72;;;;;;;13.75;69.66;101713.00;5042813;28;20060;-75
2023/06/15 02:27:51;;;;;;;8.40;5.43;;;;;;;13.68;70.27;101707.56;5047746;28;20025;-77
2023/06/15 02:30:17;;;;;;;9.38;5.55;;;;;;;13.62;70.37;101709.19;5052010;28;20087;-77
2023/06/15 02:32:42;;;;;;;7.53;4.97;;;;;;;13.54;70.44;101708.47;5040692;28;20478;-77
2023/06/15 02:35:11;;;;;;;8.40;5.93;;;;;;;13.48;70.88;101713.63;5047212;28;20024;-78
2023/06/15 02:37:36;;;;;;;7.55;5.45;;;;;;;13.43;71.29;101712.56;5052564;28;20103;-77
2023/06/15 02:40:06;;;;;;;7.85;6.35;;;;;;;13.35;71.08;101721.59;5046883;28;20472;-77
2023/06/15 02:42:33;;;;;;;7.05;6.22;;;;;;;13.28;71.44;101718.00;5050136;28;20107;-77
2023/06/15 02:45:02;;;;;;;6.20;5.60;;;;;;;13.23;71.70;101715.06;5030997;28;20028;-77
2023/06/15 02:47:28;;;;;;;6.25;5.65;;;;;;;13.18;71.68;101716.47;5050512;28;20079;-77
2023/06/15 02:49:53;;;;;;;8.82;6.35;;;;;;;13.12;72.22;101717.22;5049579;28;20041;-77
2023/06/15 02:52:20;;;;;;;8.60;6.22;;;;;;;13.07;72.48;101714.25;5049628;28;20033;-77
2023/06/15 02:54:45;;;;;;;8.38;5.30;;;;;;;13.03;72.38;101713.00;5032433;28;20245;-77
2023/06/15 02:57:11;;;;;;;9.15;5.70;;;;;;;13.02;72.56;101708.59;5049992;28;20425;-77
2023/06/15 02:59:37;;;;;;;7.03;6.03;;;;;;;13.01;72.13;101706.94;5050972;28;20031;-77
2023/06/15 03:02:05;;;;;;;6.82;6.00;;;;;;;12.98;72.55;101705.44;5051615;28;20112;-77
2023/06/15 03:04:32;;;;;;;7.43;6.72;;;;;;;12.97;72.40;101711.03;5042835;28;20054;-77
2023/06/15 03:06:58;;;;;;;7.88;6.10;;;;;;;12.97;72.88;101711.88;5062403;28;20021;-76
2023/06/15 03:09:23;;;;;;;6.80;6.20;;;;;;;12.94;72.73;101708.72;5041541;28;20568;-78
2023/06/15 03:11:50;;;;;;;8.52;7.07;;;;;;;12.89;73.34;101704.72;5049638;28;20194;-78
2023/06/15 03:14:18;;;;;;;9.63;6.95;;;;;;;12.85;73.18;101705.28;5035470;28;20784;-77
2023/06/15 03:16:46;;;;;;;7.10;6.40;;;;;;;12.81;73.23;101704.84;5049745;28;20102;-77
2023/06/15 03:19:18;;;;;;;8.25;6.15;;;;;;;12.82;73.79;101706.53;5048381;28;20021;-77
2023/06/15 03:21:46;;;;;;;8.20;6.43;;;;;;;12.81;73.40;101712.94;5051579;28;20028;-77
2023/06/15 03:24:13;;;;;;;9.43;6.90;;;;;;;12.81;73.67;101718.34;5049453;28;20033;-77
2023/06/15 03:26:40;;;;;;;10.05;8.05;;;;;;;12.84;73.82;101715.28;5049869;28;20025;-77
2023/06/15 03:29:09;;;;;;;10.75;7.10;;;;;;;12.85;73.83;101716.97;5042627;28;20388;-78
2023/06/15 03:31:40;;;;;;;7.60;6.85;;;;;;;12.85;73.83;101718.81;5047349;28;20029;-77
2023/06/15 03:34:07;;;;;;;6.80;6.20;;;;;;;12.84;73.67;101723.38;5044715;28;20037;-77
2023/06/15 03:36:36;;;;;;;7.82;6.88;;;;;;;12.85;74.11;101725.06;5065553;23;20092;-77
2023/06/15 03:39:04;;;;;;;9.65;7.35;;;;;;;12.96;73.77;101712.06;5047737;28;20044;-78
2023/06/15 03:41:30;;;;;;;9.98;7.30;;;;;;;13.01;73.66;101718.56;5046533;28;20116;-77
2023/06/15 03:43:59;;;;;;;8.35;7.18;;;;;;;13.07;73.53;101718.84;5050914;28;20048;-77
2023/06/15 03:46:24;;;;;;;7.30;6.70;;;;;;;13.09;73.74;101716.78;5049298;28;20336;-78
2023/06/15 03:48:50;;;;;;;8.45;6.63;;;;;;;13.12;73.49;101719.09;5049144;28;20038;-77
2023/06/15 03:51:16;;;;;;;10.07;7.88;;;;;;;13.16;73.51;101718.53;5042072;28;20108;-78
2023/06/15 03:53:42;;;;;;;7.57;6.88;;;;;;;13.23;73.77;101721.28;5043502;28;20108;-77
2023/06/15 03:56:10;;;;;;;9.18;7.90;;;;;;;13.30;74.00;101715.94;5047031;28;20396;-77
2023/06/15 03:58:35;;;;;;;9.13;6.93;;;;;;;13.34;73.24;101719.94;5048950;28;20036;-78
2023/06/15 04:01:01;;;;;;;8.25;7.28;;;;;;;13.42;73.28;101719.81;5042280;28;20040;-77
2023/06/15 04:03:26;;;;;;;7.78;6.93;;;;;;;13.48;73.32;101719.03;5050352;28;20079;-78
2023/06/15 04:05:52;;;;;;;8.23;7.40;;;;;;;13.53;73.28;101721.16;5053019;28;20270;-77
2023/06/15 04:08:18;;;;;;;8.23;6.97;;;;;;;13.60;72.85;101718.50;5053280;28;20047;-77
2023/06/15 04:10:43;;;;;;;9.27;7.32;;;;;;;13.67;72.64;101719.41;5053737;28;20313;-77
2023/06/15 04:13:09;;;;;;;8.25;6.97;;;;;;;13.77;72.35;101722.59;5045748;28;20021;-77
2023/06/15 04:15:34;;;;;;;8.23;7.32;;;;;;;13.83;72.28;101730.97;5052631;28;20550;-77
2023/06/15 04:18:00;;;;;;;8.25;6.82;;;;;;;13.89;71.79;101730.19;5035577;28;20032;-77
2023/06/15 04:20:29;;;;;;;8.65;6.82;;;;;;;13.95;72.02;101726.66;5046095;28;20476;-77
2023/06/15 04:22:56;;;;;;;7.75;6.95;;;;;;;14.03;71.45;101721.13;5045890;28;20036;-77
2023/06/15 04:25:21;;;;;;;8.70;7.13;;;;;;;14.14;71.36;101729.72;5044672;28;20021;-77
2023/06/15 04:27:49;;;;;;;9.10;7.78;;;;;;;14.24;71.35;101735.63;5045192;28;20031;-77
2023/06/15 04:30:16;;;;;;;9.57;7.15;;;;;;;14.35;70.92;101729.63;5053731;28;20064;-77
2023/06/15 04:32:46;;;;;;;9.10;7.50;;;;;;;14.56;70.41;101730.56;5045850;28;20423;-78
2023/06/15 04:35:16;;;;;;;10.27;7.43;;;;;;;14.94;69.85;101731.94;5052661;28;20040;-79
2023/06/15 04:37:41;;;;;;;13.40;7.60;;;;;;;15.65;66.77;101743.31;5044810;28;20421;-78
2023/06/15 04:40:09;;;;;;;11.63;7.85;;;;;;;16.56;63.99;101744.41;5053102;28;20027;-78
2023/06/15 04:42:37;;;;;;;8.43;7.60;;;;;;;17.33;61.13;101740.06;5035107;28;20163;-78
2023/06/15 04:45:03;;;;;;;11.07;7.93;;;;;;;17.90;59.40;101742.72;5053576;28;20033;-78
2023/06/15 04:47:28;;;;;;;10.02;7.30;;;;;;;18.38;57.14;101759.44;5049753;28;20044;-78
2023/06/15 04:49:54;;;;;;;9.65;7.63;;;;;;;18.52;56.53;101755.53;5044314;28;20056;-78
2023/06/15 04:52:23;;;;;;;9.75;7.13;;;;;;;18.76;55.69;101756.47;5034503;28;20043;-77
2023/06/15 04:54:48;;;;;;;8.07;7.03;;;;;;;19.05;54.32;101761.38;5050620;28;20175;-77
2023/06/15 04:57:13;;;;;;;12.38;7.95;;;;;;;19.41;53.36;101765.03;5052048;28;20366;-78
2023/06/15 04:59:39;;;;;;;8.43;6.93;;;;;;;19.67;53.02;101765.66;5052724;28;20031;-78
2023/06/15 05:02:06;;;;;;;10.05;7.38;;;;;;;19.86;52.40;101766.38;5049296;28;20496;-77
2023/06/15 05:04:34;;;;;;;11.93;7.78;;;;;;;20.19;51.38;101772.34;5052625;28;20040;-78
2023/06/15 05:07:00;;;;;;;10.38;7.07;;;;;;;20.53;50.23;101765.16;5046514;28;20041;-78
2023/06/15 05:09:28;;;;;;;9.48;7.72;;;;;;;20.57;49.71;101765.50;5040479;28;20067;-78
2023/06/15 05:11:57;;;;;;;8.38;7.53;;;;;;;20.99;48.59;101764.44;5045795;28;20461;-78
2023/06/15 05:14:26;;;;;;;9.95;7.50;;;;;;;21.63;46.49;101771.59;5044237;28;20072;-78
2023/06/15 05:16:51;;;;;;;8.40;7.30;;;;;;;21.38;47.00;101769.22;5050207;28;20100;-78
2023/06/15 05:19:26;;;;;;;10.35;7.38;;;;;;;21.51;46.13;101777.13;5049889;28;20020;-78
2023/06/15 05:21:52;;;;;;;8.52;7.50;;;;;;;21.12;47.16;101771.53;5048557;28;20026;-78
2023/06/15 05:24:32;;;;;;;10.25;7.65;;;;;;;21.44;46.68;101771.81;5012160;28;20114;-78
2023/06/15 05:26:58;;;;;;;10.05;7.97;;;;;;;21.91;45.27;101769.84;5057073;23;20479;-78
2023/06/15 05:29:23;;;;;;;8.20;6.88;;;;;;;22.61;44.44;101772.16;5052601;28;20067;-78
2023/06/15 05:31:48;;;;;;;11.23;7.28;;;;;;;22.13;44.67;101777.28;5052139;28;20025;-78
2023/06/15 05:34:14;;;;;;;9.70;7.30;;;;;;;22.36;44.75;101779.78;5047015;28;20501;-78
2023/06/15 05:36:39;;;;;;;9.82;7.35;;;;;;;21.88;44.67;101775.81;5049191;28;20027;-79
2023/06/15 05:39:06;;;;;;;10.07;7.85;;;;;;;21.29;46.35;101775.13;5045060;28;20999;-77
2023/06/15 05:41:32;;;;;;;10.10;7.03;;;;;;;21.95;44.59;101771.00;5044264;28;20146;-77
2023/06/15 05:44:01;;;;;;;8.75;7.35;;;;;;;22.23;44.02;101778.25;5045348;28;20555;-78
2023/06/15 05:46:27;;;;;;;8.65;6.93;;;;;;;22.27;43.34;101776.66;5045710;28;20436;-77
2023/06/15 05:48:52;;;;;;;10.38;7.40;;;;;;;22.71;42.79;101786.84;5047774;28;20473;-77
2023/06/15 05:51:21;;;;;;;7.43;6.55;;;;;;;23.30;41.34;101787.19;5045323;28;20025;-79
2023/06/15 05:53:46;;;;;;;10.70;6.93;;;;;;;23.76;40.43;101784.88;5041692;28;20070;-73
2023/06/15 05:56:11;;;;;;;9.63;6.95;;;;;;;24.07;40.21;101787.03;5042563;28;20107;-76
2023/06/15 05:58:37;;;;;;;10.75;6.63;;;;;;;24.67;38.77;101779.34;5041738;28;20033;-73
2023/06/15 06:01:05;;;;;;;8.18;6.35;;;;;;;25.13;37.59;101780.56;5033836;28;20052;-73
2023/06/15 06:03:31;;;;;;;8.85;6.50;;;;;;;25.30;37.09;101790.50;5042168;28;20507;-73
2023/06/15 06:05:59;;;;;;;7.55;6.78;;;;;;;25.35;37.19;101794.09;5040462;28;20033;-74
2023/06/15 06:08:26;;;;;;;9.25;6.68;;;;;;;25.15;36.94;101785.81;5050191;28;20033;-75
2023/06/15 06:10:51;;;;;;;10.77;8.55;;;;;;;25.33;36.17;101789.97;5049055;28;20499;-76
2023/06/15 06:13:16;;;;;;;9.35;6.57;;;;;;;25.01;36.36;101788.25;5042588;28;20104;-78
2023/06/15 06:15:42;;;;;;;11.05;6.28;;;;;;;25.45;36.18;101787.78;5049566;28;20033;-77
2023/06/15 06:18:08;;;;;;;9.82;6.07;;;;;;;26.11;33.96;101788.00;5048174;28;20475;-77
2023/06/15 06:20:35;;;;;;;8.02;5.75;;;;;;;26.05;34.08;101789.94;5049007;28;20418;-77
2023/06/15 06:23:02;;;;;;;10.52;6.20;;;;;;;25.78;34.01;101795.78;5040589;28;20034;-77
2023/06/15 06:25:31;;;;;;;8.77;6.10;;;;;;;25.36;35.59;101787.47;5048345;28;20027;-77
2023/06/15 06:27:56;;;;;;;8.32;5.90;;;;;;;26.46;33.96;101789.84;5048547;28;20047;-79
2023/06/15 06:30:22;;;;;;;10.82;5.57;;;;;;;26.84;32.99;101792.19;5046531;28;20037;-78
2023/06/15 06:32:47;;;;;;;7.55;5.82;;;;;;;26.48;33.30;101793.13;5047402;28;20032;-78
2023/06/15 06:35:12;;;;;;;7.75;5.60;;;;;;;27.46;31.95;101796.50;5047836;28;20537;-77
2023/06/15 06:37:38;;;;;;;8.88;5.38;;;;;;;27.66;31.52;101796.31;5041089;28;20023;-77
2023/06/15 06:40:04;;;;;;;7.90;5.60;;;;;;;27.22;31.96;101798.03;5049596;28;20051;-78
2023/06/15 06:42:29;;;;;;;6.55;4.93;;;;;;;27.77;30.31;101794.28;5055591;28;20048;-77
2023/06/15 06:44:55;;;;;;;8.00;5.32;;;;;;;27.10;31.90;101794.78;5053979;28;20031;-77
2023/06/15 06:47:21;;;;;;;5.80;5.20;;;;;;;28.34;30.48;101801.19;5040755;28;20036;-80
2023/06/15 06:49:49;;;;;;;8.98;5.72;;;;;;;29.45;27.44;101795.50;5048826;28;20021;-79
2023/06/15 06:52:15;;;;;;;10.18;5.53;;;;;;;28.72;29.25;101792.94;5045467;28;20033;-79
2023/06/15 06:54:40;;;;;;;7.45;4.90;;;;;;;28.99;28.80;101794.25;5022157;28;20468;-79
2023/06/15 06:57:05;;;;;;;6.63;4.70;;;;;;;29.47;27.92;101793.25;5040750;28;20041;-80
2023/06/15 06:59:32;;;;;;;5.97;4.60;;;;;;;30.61;26.25;101800.31;5038656;28;20031;-79
2023/06/15 07:02:07;;;;;;;6.72;4.45;;;;;;;29.11;28.18;101797.41;5046010;28;20409;-78
2023/06/15 07:04:32;;;;;;;;;;;;;;;28.17;29.49;101796.94;5049927;28;20071;-81
2023/06/15 07:06:58;;;;;;;8.30;4.50;;;;;;;29.18;28.42;101797.03;5048632;28;19920;-81
2023/06/15 07:09:23;;;;;;;9.73;4.80;;;;;;;29.26;28.39;101799.09;5039071;28;20029;-80
2023/06/15 07:11:48;;;;;;;7.90;5.45;;;;;;;29.40;27.60;101790.88;5043429;28;20089;-80
2023/06/15 07:14:14;;;;;;;10.05;5.70;;;;;;;29.94;28.60;101796.03;5049179;28;20040;-80
2023/06/15 07:16:39;;;;;;;6.63;4.20;;;;;;;31.49;25.95;101805.81;5048959;28;20469;-79
2023/06/15 07:19:05;;;;;;;6.68;4.88;;;;;;;31.08;25.30;101802.03;5039423;28;20115;-80
2023/06/15 07:21:33;;;;;;;6.15;4.50;;;;;;;31.52;25.62;101805.16;5047394;28;20033;-82
2023/06/15 07:24:00;;;;;;;5.50;4.65;;;;;;;31.46;25.18;101807.25;5040271;28;20033;-81
2023/06/15 07:26:25;;;;;;;9.40;5.55;;;;;;;30.54;27.94;101805.41;5046124;28;20036;-81
2023/06/15 07:28:51;;;;;;;7.38;4.95;;;;;;;31.12;27.42;101800.25;5037233;28;20045;-78
2023/06/15 07:31:16;;;;;;;10.32;5.68;;;;;;;31.17;27.20;101805.75;5037981;28;20034;-77
2023/06/15 07:33:41;;;;;;;7.13;4.70;;;;;;;31.09;27.28;101812.00;5040902;28;20031;-74
2023/06/15 07:36:07;;;;;;;11.18;5.07;;;;;;;30.90;28.04;101804.66;5047838;28;20024;-75
2023/06/15 07:38:32;;;;;;;6.45;4.25;;;;;;;32.41;25.97;101804.47;5041611;28;20031;-74
2023/06/15 07:40:57;;;;;;;7.80;4.97;;;;;;;31.11;27.54;101809.75;5045042;28;20408;-74
2023/06/15 07:43:23;;;;;;;5.53;4.97;;;;;;;32.89;25.01;101805.56;5051125;28;20025;-75
2023/06/15 07:45:49;;;;;;;8.80;4.85;;;;;;;32.88;24.87;101809.50;5051498;28;20041;-74
2023/06/15 07:48:14;;;;;;;7.38;4.30;;;;;;;33.94;23.50;101807.44;5050119;28;20487;-75
2023/06/15 07:50:39;;;;;;;10.25;5.05;;;;;;;33.17;24.10;101814.44;5045065;28;20079;-74
2023/06/15 07:53:05;;;;;;;4.63;4.22;;;;;;;31.86;25.62;101818.50;5050439;28;20526;-74
2023/06/15 07:55:30;;;;;;;6.85;4.60;;;;;;;32.21;25.21;101810.28;5042689;28;20052;-75
2023/06/15 07:57:55;;;;;;;4.75;4.22;;;;;;;32.81;24.66;101812.75;5045915;28;20043;-75
2023/06/15 08:00:21;;;;;;;6.00;4.30;;;;;;;33.89;23.27;101808.41;5049114;28;20032;-74
2023/06/15 08:02:46;;;;;;;6.13;3.65;;;;;;;33.79;22.98;101800.38;5050684;28;20048;-75
2023/06/15 08:05:12;;;;;;;4.38;3.38;;;;;;;34.04;22.38;101804.25;5049723;28;20035;-74
2023/06/15 08:07:37;;;;;;;8.85;3.80;;;;;;;34.24;22.34;101808.25;5049812;28;20472;-75
2023/06/15 08:10:06;;;;;;;4.40;3.80;;;;;;;34.71;21.79;101809.34;5052199;28;20025;-75
2023/06/15 08:12:31;;;;;;;5.57;4.00;;;;;;;34.78;21.25;101806.78;5043431;28;20065;-75
2023/06/15 08:14:57;;;;;;;6.22;4.30;;;;;;;34.84;21.32;101811.03;5050780;28;20043;-74
2023/06/15 08:17:24;;;;;;;7.35;4.28;;;;;;;34.87;21.16;101809.53;5049588;28;20373;-74
2023/06/15 08:19:49;;;;;;;7.35;4.57;;;;;;;34.54;22.36;101808.31;5052260;28;20051;-75
2023/06/15 08:22:15;;;;;;;7.95;4.22;;;;;;;36.01;20.63;101805.63;5049841;28;20024;-75
2023/06/15 08:24:40;;;;;;;5.45;4.13;;;;;;;35.71;20.56;101803.00;5049847;28;20033;-75
2023/06/15 08:27:06;;;;;;;13.10;5.00;;;;;;;35.09;21.20;101805.59;5042878;28;20374;-76
2023/06/15 08:29:31;;;;;;;8.18;4.50;;;;;;;35.64;21.03;101808.38;5050635;28;20063;-75
2023/06/15 08:31:56;;;;;;;7.85;5.35;;;;;;;35.89;20.46;101809.25;5035439;28;20476;-73
2023/06/15 08:34:22;;;;;;;8.80;4.15;;;;;;;35.18;21.83;101797.13;5043876;28;20033;-73
2023/06/15 08:36:49;;;;;;;8.38;5.03;;;;;;;35.25;21.34;101802.97;5051088;28;20088;-73
2023/06/15 08:39:14;;;;;;;11.15;4.80;;;;;;;35.59;20.64;101800.19;5049440;28;20032;-74
2023/06/15 08:41:40;;;;;;;8.40;4.32;;;;;;;34.70;21.70;101799.31;5044447;28;20029;-74
2023/06/15 08:44:05;;;;;;;7.70;4.82;;;;;;;35.31;20.97;101800.78;5051480;28;20021;-74
2023/06/15 08:46:31;;;;;;;6.10;4.00;;;;;;;35.54;20.72;101804.03;5031959;28;20473;-74
2023/06/15 08:48:56;;;;;;;9.95;4.45;;;;;;;35.28;20.97;101801.47;5050789;28;20114;-74
2023/06/15 08:51:21;;;;;;;5.63;4.43;;;;;;;33.18;23.76;101788.16;5008334;28;20036;-74
2023/06/15 08:53:47;;;;;;;6.75;4.00;;;;;;;34.63;21.69;101799.00;5042295;28;20091;-74
2023/06/15 08:56:13;;;;;;;4.90;3.60;;;;;;;35.07;21.01;101805.13;5050430;28;20033;-75
2023/06/15 08:58:48;;;;;;;5.10;3.67;;;;;;;35.22;20.98;101800.84;5050970;28;20017;-74
2023/06/15 09:01:14;;;;;;;6.18;3.80;;;;;;;36.21;19.86;101798.28;5043683;28;20036;-74
2023/06/15 09:03:39;;;;;;;4.22;3.40;;;;;;;36.59;19.41;101807.50;5047156;28;20025;-75
2023/06/15 09:06:05;;;;;;;7.07;4.03;;;;;;;35.74;20.10;101802.31;5009593;28;20412;-74
2023/06/15 09:08:30;;;;;;;6.53;3.65;;;;;;;36.11;20.14;101793.97;5039110;28;20025;-75
2023/06/15 09:11:06;;;;;;;7.85;3.70;;;;;;;35.42;20.42;101789.97;5032070;28;20115;-74
2023/06/15 09:13:32;;;;;;;6.35;4.00;;;;;;;33.82;22.30;101786.56;5048056;28;20032;-74
2023/06/15 09:15:58;;;;;;;4.22;3.60;;;;;;;34.52;21.19;101793.00;5049234;28;20025;-76
2023/06/15 09:18:23;;;;;;;5.85;3.58;;;;;;;35.95;20.03;101784.63;5045305;28;20087;-75
2023/06/15 09:20:49;;;;;;;7.97;3.40;;;;;;;37.42;18.16;101792.28;5047370;28;20093;-73
2023/06/15 09:23:14;;;;;;;7.53;3.67;;;;;;;36.39;19.26;101787.63;5030397;28;20043;-74
2023/06/15 09:25:41;;;;;;;6.03;3.83;;;;;;;35.16;20.41;101782.66;5024680;28;20175;-74
2023/06/15 09:28:07;;;;;;;6.30;3.60;;;;;;;35.87;20.29;101777.13;5011317;28;20060;-74
2023/06/15 09:30:39;;;;;;;7.75;4.03;;;;;;;37.11;18.63;101779.75;5048571;28;20021;-74
2023/06/15 09:33:17;;;;;;;7.45;3.90;;;;;;;36.91;18.29;101771.16;5047631;28;20025;-74
2023/06/15 09:36:04;;;;;;;5.50;3.30;;;;;;;36.17;18.92;101768.53;5044242;28;20021;-74
2023/06/15 09:38:44;;;;;;;7.82;3.20;;;;;;;37.16;18.21;101774.69;5049137;28;20021;-74
2023/06/15 09:41:09;;;;;;;5.30;3.15;;;;;;;35.71;19.13;101774.19;5049020;28;20483;-73
2023/06/15 09:43:35;;;;;;;5.85;3.28;;;;;;;34.83;19.66;101761.84;5048843;28;20064;-73
2023/06/15 09:46:02;;;;;;;7.63;3.13;;;;;;;34.12;20.84;101763.47;5045367;28;20104;-74
2023/06/15 09:48:30;;;;;;;6.85;3.20;;;;;;;33.49;20.91;101752.84;5048756;28;20036;-74
2023/06/15 09:50:59;;;;;;;4.88;3.35;;;;;;;33.41;21.43;101749.75;5041452;28;20037;-74
2023/06/15 09:53:25;;;;;;;4.45;3.10;;;;;;;35.69;19.04;101766.13;5049549;28;20035;-74
2023/06/15 09:55:50;;;;;;;4.15;3.20;;;;;;;36.45;17.66;101762.19;5031547;28;20029;-74
2023/06/15 09:58:16;;;;;;;6.43;3.05;;;;;;;36.48;17.54;101759.47;5011522;28;20029;-74
2023/06/15 10:00:42;;;;;;;7.18;3.10;;;;;;;36.67;17.37;101756.06;5047613;28;20521;-74
2023/06/15 10:03:08;;;;;;;6.57;3.40;;;;;;;34.52;19.28;101760.28;5053119;28;20033;-74
2023/06/15 10:05:34;;;;;;;6.15;3.20;;;;;;;32.99;20.80;101757.84;5041756;28;20522;-74
2023/06/15 10:08:02;;;;;;;6.78;2.95;;;;;;;32.06;21.82;101749.47;5025705;28;20173;-74
2023/06/15 10:10:28;;;;;;;4.72;3.00;;;;;;;31.90;21.73;101752.69;5039604;28;20036;-74
2023/06/15 10:12:57;;;;;;;5.70;3.00;;;;;;;31.25;22.85;101756.88;5023260;28;20025;-74
2023/06/15 10:15:22;;;;;;;6.22;3.47;;;;;;;31.09;22.62;101753.63;5030901;28;20388;-74
2023/06/15 10:17:48;;;;;;;3.30;2.58;;;;;;;31.77;22.20;101753.63;5031764;28;20111;-74
2023/06/15 10:20:17;;;;;;;5.25;3.28;;;;;;;31.54;22.62;101753.63;5009523;28;20036;-74
2023/06/15 10:23:05;;;;;;;5.95;3.55;;;;;;;30.99;23.74;101757.47;5047828;28;20036;-74
2023/06/15 10:25:32;;;;;;;6.05;3.13;;;;;;;30.73;23.77;101754.47;5042878;28;20031;-74
2023/06/15 10:28:09;;;;;;;5.47;3.35;;;;;;;30.35;23.84;101750.00;5005993;28;20058;-74
2023/06/15 10:30:49;;;;;;;9.95;3.08;;;;;;;30.72;22.98;101755.59;5046699;28;20029;-73
2023/06/15 10:33:38;;;;;;;4.78;3.00;;;;;;;30.96;22.80;101753.38;5011533;28;20044;-73
2023/06/15 10:36:31;;;;;;;4.85;3.35;;;;;;;32.34;21.47;101749.22;5002212;28;20059;-74
2023/06/15 10:39:25;;;;;;;4.65;2.75;;;;;;;33.10;21.22;101750.75;5029144;28;20036;-73
2023/06/15 10:42:00;;;;;;;4.38;3.03;;;;;;;32.04;21.87;101751.75;5020386;28;20473;-74
2023/06/15 10:44:32;;;;;;;3.42;2.90;;;;;;;32.07;21.46;101751.09;5047155;28;20100;-73
2023/06/15 10:47:07;;;;;;;4.75;3.30;;;;;;;31.52;21.28;101750.34;5045462;28;21233;-72
2023/06/15 10:49:41;;;;;;;7.97;3.30;;;;;;;32.25;21.29;101753.94;5046949;28;20025;-74
2023/06/15 10:52:07;;;;;;;5.97;2.72;;;;;;;33.53;19.13;101748.25;5047332;28;20032;-74
2023/06/15 10:54:34;;;;;;;4.05;2.35;;;;;;;34.26;17.76;101744.47;5008597;28;20029;-74
2023/06/15 10:57:00;;;;;;;4.07;2.50;;;;;;;34.75;17.84;101746.78;5002967;28;20030;-73
2023/06/15 10:59:38;;;;;;;6.57;2.90;;;;;;;36.00;16.99;101749.94;5039959;28;20032;-75
2023/06/15 11:02:26;;;;;;;4.05;2.50;;;;;;;36.27;16.86;101751.22;5043587;28;20025;-76
2023/06/15 11:04:52;;;;;;;4.85;2.97;;;;;;;36.67;16.21;101750.44;5046307;28;20036;-74
2023/06/15 11:07:26;;;;;;;5.93;2.70;;;;;;;36.86;15.71;101743.38;5048562;28;20033;-74
2023/06/15 11:09:51;;;;;;;4.28;2.40;;;;;;;35.87;16.12;101749.09;5040080;28;20025;-74
2023/06/15 11:13:00;;;;;;;4.75;2.55;;;;;;;37.76;15.06;101750.63;5009473;28;20025;-73
2023/06/15 11:15:30;;;;;;;4.28;2.83;;;;;;;38.11;14.68;101743.41;4946375;28;20027;-72
2023/06/15 11:17:56;;;;;;;3.90;2.75;;;;;;;37.19;15.80;101745.09;4948572;28;20070;-75
2023/06/15 11:20:44;;;;;;;6.30;2.88;;;;;;;36.93;15.90;101735.16;4993018;28;20083;-74
2023/06/15 11:23:10;;;;;;;4.13;2.47;;;;;;;36.97;16.38;101747.31;5038548;28;20064;-75
2023/06/15 11:25:42;;;;;;;3.95;2.70;;;;;;;37.86;15.20;101744.44;5049229;28;20025;-73